createdAt,value
2023-02-26T00:00:31.181Z,100449.16
2023-02-26T00:02:57.721Z,100448.84
2023-02-26T00:05:24.135Z,100445.09
2023-02-26T00:07:50.562Z,100453.63
2023-02-26T00:10:17.879Z,100457.16
2023-02-26T00:12:44.396Z,100455.53
2023-02-26T00:15:10.885Z,100457.38
2023-02-26T00:17:37.668Z,100468.38
2023-02-26T00:20:04.117Z,100469.22
2023-02-26T00:22:30.478Z,100456.22
2023-02-26T00:24:57.301Z,100459.75
2023-02-26T00:27:23.607Z,100461.63
2023-02-26T00:29:50.066Z,100474.28
2023-02-26T00:32:16.518Z,100474.28
2023-02-26T00:34:44.300Z,100478.00
2023-02-26T00:37:10.631Z,100488.19
2023-02-26T00:39:37.241Z,100489.25
2023-02-26T00:42:04.115Z,100490.88
2023-02-26T00:44:30.471Z,100485.75
2023-02-26T00:46:56.887Z,100497.56
2023-02-26T00:49:23.258Z,100495.94
2023-02-26T00:51:49.540Z,100505.03
2023-02-26T00:54:15.912Z,100508.56
2023-02-26T00:56:42.266Z,100499.66
2023-02-26T00:59:09.246Z,100508.34
2023-02-26T01:01:35.591Z,100508.81
2023-02-26T01:04:02.648Z,100507.97
2023-02-26T01:06:29.531Z,100502.84
2023-02-26T01:08:55.940Z,100513.34
2023-02-26T01:11:22.514Z,100520.03
2023-02-26T01:13:48.980Z,100519.00
2023-02-26T01:16:15.975Z,100520.03
2023-02-26T01:18:42.478Z,100531.84
2023-02-26T01:21:08.935Z,100524.03
2023-02-26T01:23:35.401Z,100538.06
2023-02-26T01:26:01.765Z,100532.09
2023-02-26T01:28:28.357Z,100535.00
2023-02-26T01:30:55.215Z,100540.41
2023-02-26T01:33:21.724Z,100542.28
2023-02-26T01:35:48.349Z,100544.16
2023-02-26T01:38:15.149Z,100552.81
2023-02-26T01:40:41.676Z,100553.28
2023-02-26T01:43:08.030Z,100551.66
2023-02-26T01:45:34.339Z,100550.00
2023-02-26T01:48:00.717Z,100548.13
2023-02-26T01:50:27.515Z,100556.19
2023-02-26T01:52:54.159Z,100566.41
2023-02-26T01:55:20.812Z,100567.19
2023-02-26T01:57:47.195Z,100572.56
2023-02-26T02:00:14.295Z,100584.41
2023-02-26T02:02:41.495Z,100581.09
2023-02-26T02:05:07.963Z,100590.84
2023-02-26T02:07:34.277Z,100601.59
2023-02-26T02:10:01.020Z,100593.53
2023-02-26T02:12:28.304Z,100602.91
2023-02-26T02:14:55.242Z,100601.00
2023-02-26T02:17:21.672Z,100601.00
2023-02-26T02:19:48.326Z,100606.38
2023-02-26T02:22:16.217Z,100609.06
2023-02-26T02:24:42.693Z,100613.06
2023-02-26T02:27:09.344Z,100617.38
2023-02-26T02:29:35.743Z,100615.75
2023-02-26T02:32:02.469Z,100616.56
2023-02-26T02:34:28.807Z,100623.00
2023-02-26T02:36:55.113Z,100617.63
2023-02-26T02:39:21.838Z,100619.50
2023-02-26T02:41:48.127Z,100626.72
2023-02-26T02:44:14.466Z,100635.88
2023-02-26T02:46:40.828Z,100635.03
2023-02-26T02:49:07.231Z,100633.41
2023-02-26T02:51:33.660Z,100638.78
2023-02-26T02:54:00.050Z,100640.41
2023-02-26T02:56:26.965Z,100644.16
2023-02-26T02:58:53.627Z,100642.53
2023-02-26T03:01:20.229Z,100644.16
2023-02-26T03:03:46.670Z,100643.34
2023-02-26T03:06:13.056Z,100644.16
2023-02-26T03:08:39.425Z,100644.38
2023-02-26T03:11:05.723Z,100642.75
2023-02-26T03:13:32.342Z,100644.38
2023-02-26T03:15:58.703Z,100649.19
2023-02-26T03:18:25.603Z,100654.59
2023-02-26T03:20:52.027Z,100665.09
2023-02-26T03:23:18.368Z,100673.19
2023-02-26T03:25:44.706Z,100679.63
2023-02-26T03:28:11.303Z,100676.66
2023-02-26T03:30:38.014Z,100681.25
2023-02-26T03:33:05.401Z,100687.69
2023-02-26T03:35:31.843Z,100693.88
2023-02-26T03:37:58.197Z,100687.09
2023-02-26T03:40:24.588Z,100688.72
2023-02-26T03:42:51.563Z,100695.97
2023-02-26T03:45:18.038Z,100704.84
2023-02-26T03:47:44.440Z,100700.75
2023-02-26T03:50:10.810Z,100703.44
2023-02-26T03:52:37.299Z,100701.81
2023-02-26T03:55:03.822Z,100703.44
2023-02-26T03:57:30.532Z,100702.66
2023-02-26T03:59:57.297Z,100711.53
2023-02-26T04:02:23.626Z,100714.44
2023-02-26T04:04:51.981Z,100720.66
2023-02-26T04:07:19.510Z,100735.16
2023-02-26T04:09:46.613Z,100735.16
2023-02-26T04:12:14.439Z,100735.16
2023-02-26T04:14:41.939Z,100729.78
2023-02-26T04:17:10.681Z,100740.53
2023-02-26T04:19:38.019Z,100748.59
2023-02-26T04:22:05.212Z,100740.75
2023-02-26T04:24:32.093Z,100741.56
2023-02-26T04:26:58.945Z,100743.44
2023-02-26T04:29:25.663Z,100749.63
2023-02-26T04:31:52.925Z,100750.66
2023-02-26T04:34:19.482Z,100750.66
2023-02-26T04:36:47.674Z,100760.38
2023-02-26T04:39:14.504Z,100757.91
2023-02-26T04:41:40.871Z,100776.75
2023-02-26T04:44:07.225Z,100774.28
2023-02-26T04:46:34.262Z,100779.66
2023-02-26T04:49:01.181Z,100791.47
2023-02-26T04:51:27.541Z,100787.72
2023-02-26T04:53:53.967Z,100785.84
2023-02-26T04:56:20.632Z,100781.28
2023-02-26T04:58:46.933Z,100792.28
2023-02-26T05:01:13.946Z,100799.53
2023-02-26T05:03:40.772Z,100795.41
2023-02-26T05:06:07.158Z,100799.78
2023-02-26T05:08:33.536Z,100798.09
2023-02-26T05:10:59.902Z,100802.69
2023-02-26T05:13:26.320Z,100806.44
2023-02-26T05:15:52.682Z,100816.13
2023-02-26T05:18:18.960Z,100815.28
2023-02-26T05:20:45.308Z,100813.66
2023-02-26T05:23:11.990Z,100817.19
2023-02-26T05:25:38.385Z,100823.59
2023-02-26T05:28:05.272Z,100825.47
2023-02-26T05:30:31.749Z,100827.34
2023-02-26T05:32:58.137Z,100826.28
2023-02-26T05:35:24.817Z,100839.72
2023-02-26T05:37:51.674Z,100845.09
2023-02-26T05:40:18.536Z,100841.63
2023-02-26T05:42:46.139Z,100847.00
2023-02-26T05:45:12.990Z,100851.53
2023-02-26T05:47:39.876Z,100862.50
2023-02-26T05:50:06.486Z,100859.03
2023-02-26T05:52:33.116Z,100869.78
2023-02-26T05:54:59.430Z,100866.03
2023-02-26T05:57:26.155Z,100873.06
2023-02-26T05:59:52.639Z,100874.31
2023-02-26T06:02:19.394Z,100870.00
2023-02-26T06:04:46.180Z,100875.16
2023-02-26T06:07:13.205Z,100874.31
2023-02-26T06:09:39.674Z,100879.69
2023-02-26T06:12:06.425Z,100883.22
2023-02-26T06:14:32.910Z,100887.78
2023-02-26T06:16:59.219Z,100895.00
2023-02-26T06:19:25.650Z,100897.69
2023-02-26T06:21:52.392Z,100910.13
2023-02-26T06:24:18.813Z,100920.88
2023-02-26T06:26:45.206Z,100930.78
2023-02-26T06:29:11.535Z,100946.09
2023-02-26T06:31:38.510Z,100939.09
2023-02-26T06:34:05.122Z,100948.00
2023-02-26T06:36:31.686Z,100960.59
2023-02-26T06:38:58.048Z,100958.97
2023-02-26T06:41:24.465Z,100959.78
2023-02-26T06:43:51.702Z,100958.97
2023-02-26T06:46:18.097Z,100962.47
2023-02-26T06:48:45.084Z,100969.09
2023-02-26T06:51:11.399Z,100969.72
2023-02-26T06:53:37.735Z,100976.94
2023-02-26T06:56:04.411Z,100977.16
2023-02-26T06:58:30.774Z,100981.31
2023-02-26T07:00:57.330Z,100979.63
2023-02-26T07:03:23.671Z,100982.56
2023-02-26T07:05:50.571Z,100980.91
2023-02-26T07:08:17.268Z,100995.19
2023-02-26T07:10:43.565Z,100997.88
2023-02-26T07:13:10.045Z,100993.56
2023-02-26T07:15:36.642Z,101000.56
2023-02-26T07:18:03.735Z,101004.06
2023-02-26T07:20:30.195Z,101006.16
2023-02-26T07:22:58.017Z,101012.38
2023-02-26T07:25:24.438Z,101027.69
2023-02-26T07:27:51.017Z,101035.75
2023-02-26T07:30:17.335Z,101041.13
2023-02-26T07:32:43.809Z,101048.34
2023-02-26T07:35:10.245Z,101053.72
2023-02-26T07:37:36.927Z,101056.41
2023-02-26T07:40:03.262Z,101054.56
2023-02-26T07:42:29.597Z,101052.09
2023-02-26T07:44:56.034Z,101049.41
2023-02-26T07:47:22.366Z,101065.53
2023-02-26T07:49:48.665Z,101070.13
2023-02-26T07:52:15.751Z,101070.13
2023-02-26T07:54:42.603Z,101083.56
2023-02-26T07:57:08.936Z,101083.56
2023-02-26T07:59:35.365Z,101083.78
2023-02-26T08:02:01.756Z,101090.16
2023-02-26T08:04:28.252Z,101092.06
2023-02-26T08:06:54.751Z,101087.25
2023-02-26T08:09:21.913Z,101097.44
2023-02-26T08:11:48.514Z,101095.56
2023-02-26T08:14:14.835Z,101105.50
2023-02-26T08:16:41.592Z,101106.56
2023-02-26T08:19:08.191Z,101109.25
2023-02-26T08:21:34.742Z,101109.25
2023-02-26T08:24:01.085Z,101113.56
2023-02-26T08:26:27.819Z,101116.25
2023-02-26T08:28:54.580Z,101125.38
2023-02-26T08:31:21.753Z,101122.44
2023-02-26T08:33:48.466Z,101122.06
2023-02-26T08:36:14.928Z,101129.06
2023-02-26T08:38:41.292Z,101133.44
2023-02-26T08:41:07.872Z,101140.66
2023-02-26T08:43:34.373Z,101141.72
2023-02-26T08:46:00.710Z,101139.84
2023-02-26T08:48:27.357Z,101142.75
2023-02-26T08:50:53.951Z,101148.13
2023-02-26T08:53:20.345Z,101157.00
2023-02-26T08:55:46.868Z,101152.69
2023-02-26T08:58:13.171Z,101162.59
2023-02-26T09:00:39.928Z,101168.81
2023-02-26T09:03:06.499Z,101173.16
2023-02-26T09:05:32.924Z,101179.56
2023-02-26T09:07:59.542Z,101183.91
2023-02-26T09:10:25.945Z,101189.50
2023-02-26T09:12:52.286Z,101193.00
2023-02-26T09:15:18.901Z,101202.72
2023-02-26T09:17:45.810Z,101195.69
2023-02-26T09:20:12.251Z,101207.50
2023-02-26T09:22:38.556Z,101204.81
2023-02-26T09:25:05.848Z,101204.81
2023-02-26T09:27:32.232Z,101207.50
2023-02-26T09:29:58.650Z,101215.56
2023-02-26T09:32:25.018Z,101210.19
2023-02-26T09:34:51.539Z,101218.25
2023-02-26T09:37:18.693Z,101231.72
2023-02-26T09:39:46.600Z,101229.00
2023-02-26T09:42:13.738Z,101236.03
2023-02-26T09:44:40.159Z,101242.47
2023-02-26T09:47:06.742Z,101251.53
2023-02-26T09:49:33.150Z,101246.78
2023-02-26T09:51:59.607Z,101248.63
2023-02-26T09:54:26.475Z,101261.28
2023-02-26T09:56:53.289Z,101256.91
2023-02-26T09:59:19.658Z,101260.44
2023-02-26T10:01:46.542Z,101273.88
2023-02-26T10:04:13.043Z,101265.81
2023-02-26T10:06:39.518Z,101263.13
2023-02-26T10:09:06.398Z,101270.38
2023-02-26T10:11:33.226Z,101266.03
2023-02-26T10:14:00.086Z,101271.41
2023-02-26T10:16:27.051Z,101272.25
2023-02-26T10:18:54.433Z,101278.66
2023-02-26T10:21:20.839Z,101277.63
2023-02-26T10:23:48.257Z,101288.38
2023-02-26T10:26:15.786Z,101286.72
2023-02-26T10:28:42.405Z,101298.28
2023-02-26T10:31:09.045Z,101289.19
2023-02-26T10:33:35.820Z,101302.88
2023-02-26T10:36:02.353Z,101312.78
2023-02-26T10:38:28.694Z,101308.25
2023-02-26T10:40:55.666Z,101312.78
2023-02-26T10:43:22.098Z,101319.22
2023-02-26T10:45:49.004Z,101322.69
2023-02-26T10:48:15.611Z,101328.91
2023-02-26T10:50:41.941Z,101327.88
2023-02-26T10:53:08.438Z,101328.72
2023-02-26T10:55:35.442Z,101336.78
2023-02-26T10:58:01.858Z,101334.88
2023-02-26T11:00:28.562Z,101340.50
2023-02-26T11:02:54.989Z,101349.16
2023-02-26T11:05:22.433Z,101351.03
2023-02-26T11:07:48.788Z,101349.16
2023-02-26T11:10:15.771Z,101358.28
2023-02-26T11:12:42.281Z,101351.25
2023-02-26T11:15:08.934Z,101354.56
2023-02-26T11:17:35.584Z,101345.66
2023-02-26T11:20:02.371Z,101352.69
2023-02-26T11:22:29.211Z,101350.22
2023-02-26T11:24:55.571Z,101351.03
2023-02-26T11:27:22.288Z,101349.16
2023-02-26T11:29:48.709Z,101351.03
2023-02-26T11:32:15.378Z,101353.72
2023-02-26T11:34:41.781Z,101355.38
2023-02-26T11:37:08.146Z,101351.03
2023-02-26T11:39:34.580Z,101357.25
2023-02-26T11:42:01.178Z,101363.44
2023-02-26T11:44:27.577Z,101366.13
2023-02-26T11:46:54.060Z,101369.44
2023-02-26T11:49:20.974Z,101364.25
2023-02-26T11:51:47.924Z,101375.84
2023-02-26T11:54:14.312Z,101374.81
2023-02-26T11:56:41.361Z,101374.81
2023-02-26T11:59:07.635Z,101378.31
2023-02-26T12:01:34.011Z,101374.81
2023-02-26T12:04:00.401Z,101380.19
2023-02-26T12:06:26.839Z,101380.19
2023-02-26T12:08:54.063Z,101382.88
2023-02-26T12:11:20.819Z,101378.94
2023-02-26T12:13:47.514Z,101387.19
2023-02-26T12:16:14.056Z,101379.13
2023-02-26T12:18:40.458Z,101381.00
2023-02-26T12:21:06.883Z,101379.97
2023-02-26T12:23:33.467Z,101388.03
2023-02-26T12:25:59.841Z,101388.03
2023-02-26T12:28:26.257Z,101390.72
2023-02-26T12:30:53.174Z,101387.19
2023-02-26T12:33:20.105Z,101394.25
2023-02-26T12:35:47.186Z,101397.97
2023-02-26T12:38:15.317Z,101398.78
2023-02-26T12:40:41.818Z,101404.16
2023-02-26T12:43:08.226Z,101404.16
2023-02-26T12:45:34.578Z,101403.34
2023-02-26T12:48:01.018Z,101402.53
2023-02-26T12:50:27.362Z,101404.16
2023-02-26T12:52:53.993Z,101404.16
2023-02-26T12:55:20.873Z,101405.22
2023-02-26T12:57:48.102Z,101405.00
2023-02-26T13:00:14.669Z,101405.81
2023-02-26T13:02:41.223Z,101406.66
2023-02-26T13:05:07.577Z,101405.81
2023-02-26T13:07:34.621Z,101411.19
2023-02-26T13:10:00.903Z,101408.50
2023-02-26T13:12:27.467Z,101404.78
2023-02-26T13:14:53.764Z,101412.84
2023-02-26T13:17:20.364Z,101407.47
2023-02-26T13:19:47.549Z,101400.44
2023-02-26T13:22:13.973Z,101404.78
2023-02-26T13:24:40.452Z,101404.78
2023-02-26T13:27:07.179Z,101401.06
2023-02-26T13:29:33.619Z,101404.78
2023-02-26T13:32:00.090Z,101403.97
2023-02-26T13:34:26.802Z,101406.44
2023-02-26T13:36:53.514Z,101408.09
2023-02-26T13:39:20.359Z,101416.16
2023-02-26T13:41:46.697Z,101418.84
2023-02-26T13:44:13.046Z,101420.50
2023-02-26T13:46:40.061Z,101428.56
2023-02-26T13:49:06.542Z,101428.56
2023-02-26T13:51:32.895Z,101430.44
2023-02-26T13:53:59.305Z,101435.81
2023-02-26T13:56:26.848Z,101433.94
2023-02-26T13:58:53.254Z,101446.56
2023-02-26T14:01:19.878Z,101450.28
2023-02-26T14:03:46.505Z,101452.78
2023-02-26T14:06:12.939Z,101457.97
2023-02-26T14:08:39.631Z,101449.50
2023-02-26T14:11:06.151Z,101451.34
2023-02-26T14:13:32.854Z,101451.53
2023-02-26T14:15:59.217Z,101458.81
2023-02-26T14:18:26.108Z,101453.63
2023-02-26T14:20:52.452Z,101464.38
2023-02-26T14:23:18.896Z,101455.69
2023-02-26T14:25:45.365Z,101461.06
2023-02-26T14:28:11.902Z,101459.63
2023-02-26T14:30:38.391Z,101464.16
2023-02-26T14:33:04.864Z,101467.09
2023-02-26T14:35:31.426Z,101469.78
2023-02-26T14:37:58.040Z,101471.84
2023-02-26T14:40:24.477Z,101470.00
2023-02-26T14:42:51.734Z,101482.41
2023-02-26T14:45:18.123Z,101489.88
2023-02-26T14:47:44.543Z,101498.13
2023-02-26T14:50:11.716Z,101491.31
2023-02-26T14:52:38.151Z,101497.09
2023-02-26T14:55:04.792Z,101489.84
2023-02-26T14:57:31.416Z,101487.59
2023-02-26T14:59:57.789Z,101489.84
2023-02-26T15:02:24.272Z,101482.00
2023-02-26T15:04:50.799Z,101490.50
2023-02-26T15:07:17.153Z,101487.59
2023-02-26T15:09:43.449Z,101477.06
2023-02-26T15:12:09.819Z,101483.66
2023-02-26T15:14:36.881Z,101482.44
2023-02-26T15:17:03.253Z,101483.84
2023-02-26T15:19:29.589Z,101492.34
2023-02-26T15:21:56.328Z,101492.97
2023-02-26T15:24:22.632Z,101493.56
2023-02-26T15:26:49.149Z,101496.47
2023-02-26T15:29:15.838Z,101502.06
2023-02-26T15:31:42.389Z,101505.97
2023-02-26T15:34:08.901Z,101505.78
2023-02-26T15:36:35.379Z,101509.09
2023-02-26T15:39:01.788Z,101508.88
2023-02-26T15:41:28.193Z,101511.16
2023-02-26T15:43:55.054Z,101514.47
2023-02-26T15:46:21.402Z,101516.53
2023-02-26T15:48:48.275Z,101513.84
2023-02-26T15:51:15.156Z,101511.16
2023-02-26T15:53:41.703Z,101510.13
2023-02-26T15:56:08.148Z,101520.25
2023-02-26T15:58:34.833Z,101524.56
2023-02-26T16:01:01.196Z,101524.56
2023-02-26T16:03:27.685Z,101525.41
2023-02-26T16:05:54.778Z,101531.59
2023-02-26T16:08:21.142Z,101527.84
2023-02-26T16:10:47.425Z,101541.28
2023-02-26T16:13:14.238Z,101543.13
2023-02-26T16:15:40.620Z,101552.88
2023-02-26T16:18:07.492Z,101549.53
2023-02-26T16:20:34.300Z,101555.09
2023-02-26T16:23:00.780Z,101558.81
2023-02-26T16:25:27.187Z,101558.00
2023-02-26T16:27:53.601Z,101567.91
2023-02-26T16:30:20.329Z,101569.13
2023-02-26T16:32:46.761Z,101568.50
2023-02-26T16:35:13.550Z,101573.22
2023-02-26T16:37:39.910Z,101571.97
2023-02-26T16:40:06.393Z,101580.00
2023-02-26T16:42:33.136Z,101584.78
2023-02-26T16:45:00.213Z,101586.41
2023-02-26T16:47:27.152Z,101593.88
2023-02-26T16:49:53.565Z,101598.38
2023-02-26T16:52:20.314Z,101606.03
2023-02-26T16:54:46.904Z,101610.78
2023-02-26T16:57:13.953Z,101605.59
2023-02-26T16:59:40.408Z,101611.19
2023-02-26T17:02:06.834Z,101615.31
2023-02-26T17:04:33.305Z,101617.16
2023-02-26T17:06:59.750Z,101620.25
2023-02-26T17:09:26.086Z,101630.19
2023-02-26T17:11:52.402Z,101622.94
2023-02-26T17:14:18.846Z,101631.19
2023-02-26T17:16:45.449Z,101627.03
2023-02-26T17:19:12.355Z,101631.16
2023-02-26T17:21:38.701Z,101631.34
2023-02-26T17:24:05.821Z,101634.41
2023-02-26T17:26:32.225Z,101650.75
2023-02-26T17:28:58.621Z,101648.47
2023-02-26T17:31:25.529Z,101651.78
2023-02-26T17:33:52.408Z,101659.44
2023-02-26T17:36:19.010Z,101663.13
2023-02-26T17:38:45.444Z,101667.69
2023-02-26T17:41:11.789Z,101668.06
2023-02-26T17:43:38.511Z,101669.53
2023-02-26T17:46:05.229Z,101668.06
2023-02-26T17:48:31.650Z,101671.13
2023-02-26T17:50:58.037Z,101672.56
2023-02-26T17:53:24.410Z,101677.75
2023-02-26T17:55:51.139Z,101673.00
2023-02-26T17:58:17.607Z,101674.47
2023-02-26T18:00:43.970Z,101676.97
2023-02-26T18:03:10.629Z,101685.44
2023-02-26T18:05:36.967Z,101684.19
2023-02-26T18:08:03.353Z,101681.25
2023-02-26T18:10:29.716Z,101685.16
2023-02-26T18:12:56.110Z,101680.19
2023-02-26T18:15:22.399Z,101681.63
2023-02-26T18:17:48.970Z,101682.84
2023-02-26T18:20:15.433Z,101689.66
2023-02-26T18:22:41.876Z,101683.22
2023-02-26T18:25:08.194Z,101694.16
2023-02-26T18:27:34.578Z,101693.13
2023-02-26T18:30:00.980Z,101696.44
2023-02-26T18:32:27.905Z,101702.25
2023-02-26T18:34:54.487Z,101702.88
2023-02-26T18:37:21.167Z,101708.88
2023-02-26T18:39:47.539Z,101704.50
2023-02-26T18:42:13.952Z,101703.25
2023-02-26T18:44:40.313Z,101703.63
2023-02-26T18:47:06.956Z,101711.50
2023-02-26T18:49:33.282Z,101717.06
2023-02-26T18:52:00.029Z,101718.53
2023-02-26T18:54:26.520Z,101717.00
2023-02-26T18:56:53.029Z,101719.28
2023-02-26T18:59:19.511Z,101726.09
2023-02-26T19:01:46.132Z,101723.19
2023-02-26T19:04:12.572Z,101733.34
2023-02-26T19:06:39.075Z,101737.25
2023-02-26T19:09:05.652Z,101735.16
2023-02-26T19:11:31.999Z,101745.50
2023-02-26T19:13:58.538Z,101749.63
2023-02-26T19:16:24.820Z,101748.38
2023-02-26T19:18:51.458Z,101752.50
2023-02-26T19:21:17.776Z,101753.72
2023-02-26T19:23:44.354Z,101753.72
2023-02-26T19:26:11.159Z,101763.25
2023-02-26T19:28:37.726Z,101763.59
2023-02-26T19:31:04.208Z,101764.88
2023-02-26T19:33:30.666Z,101765.50
2023-02-26T19:35:57.318Z,101784.19
2023-02-26T19:38:23.669Z,101778.31
2023-02-26T19:40:50.174Z,101780.59
2023-02-26T19:43:16.511Z,101780.97
2023-02-26T19:45:42.985Z,101787.56
2023-02-26T19:48:09.344Z,101794.19
2023-02-26T19:50:35.809Z,101787.16
2023-02-26T19:53:02.412Z,101798.56
2023-02-26T19:55:29.424Z,101800.00
2023-02-26T19:57:56.271Z,101803.91
2023-02-26T20:00:22.690Z,101803.13
2023-02-26T20:02:49.134Z,101804.25
2023-02-26T20:05:15.431Z,101806.97
2023-02-26T20:07:42.103Z,101820.69
2023-02-26T20:10:09.666Z,101822.09
2023-02-26T20:12:36.055Z,101822.94
2023-02-26T20:15:02.607Z,101831.22
2023-02-26T20:17:29.324Z,101832.19
2023-02-26T20:19:55.904Z,101834.66
2023-02-26T20:22:22.656Z,101829.03
2023-02-26T20:24:50.573Z,101831.13
2023-02-26T20:27:17.315Z,101832.53
2023-02-26T20:29:44.447Z,101831.28
2023-02-26T20:32:11.467Z,101834.34
2023-02-26T20:34:38.077Z,101844.13
2023-02-26T20:37:05.595Z,101837.06
2023-02-26T20:39:31.960Z,101839.31
2023-02-26T20:41:58.633Z,101843.44
2023-02-26T20:44:25.830Z,101845.09
2023-02-26T20:46:52.253Z,101843.44
2023-02-26T20:49:19.265Z,101846.31
2023-02-26T20:51:45.613Z,101841.53
2023-02-26T20:54:12.055Z,101851.06
2023-02-26T20:56:38.329Z,101857.88
2023-02-26T20:59:04.675Z,101860.16
2023-02-26T21:01:31.068Z,101863.44
2023-02-26T21:03:57.739Z,101862.78
2023-02-26T21:06:24.275Z,101869.00
2023-02-26T21:08:50.705Z,101875.63
2023-02-26T21:11:17.104Z,101879.75
2023-02-26T21:13:43.707Z,101875.78
2023-02-26T21:16:10.236Z,101884.50
2023-02-26T21:18:37.582Z,101884.28
2023-02-26T21:21:04.128Z,101886.53
2023-02-26T21:23:30.543Z,101882.78
2023-02-26T21:25:56.968Z,101889.84
2023-02-26T21:28:23.451Z,101892.31
2023-02-26T21:30:49.837Z,101892.91
2023-02-26T21:33:16.466Z,101889.16
2023-02-26T21:35:42.873Z,101888.94
2023-02-26T21:38:09.342Z,101888.72
2023-02-26T21:40:35.764Z,101894.13
2023-02-26T21:43:02.286Z,101896.53
2023-02-26T21:45:29.199Z,101901.03
2023-02-26T21:47:55.686Z,101902.94
2023-02-26T21:50:22.783Z,101905.84
2023-02-26T21:52:49.711Z,101914.63
2023-02-26T21:55:16.276Z,101911.25
2023-02-26T21:57:43.302Z,101902.19
2023-02-26T22:00:09.737Z,101904.97
2023-02-26T22:02:37.519Z,101901.69
2023-02-26T22:05:04.064Z,101902.38
2023-02-26T22:07:30.388Z,101907.38
2023-02-26T22:09:56.804Z,101899.94
2023-02-26T22:12:23.635Z,101910.97
2023-02-26T22:14:50.807Z,101913.00
2023-02-26T22:17:17.616Z,101914.91
2023-02-26T22:19:44.040Z,101922.19
2023-02-26T22:22:10.681Z,101913.75
2023-02-26T22:24:37.528Z,101918.56
2023-02-26T22:27:03.939Z,101915.06
2023-02-26T22:29:30.976Z,101921.09
2023-02-26T22:31:57.882Z,101911.56
2023-02-26T22:34:24.380Z,101916.59
2023-02-26T22:36:51.390Z,101922.41
2023-02-26T22:39:17.759Z,101924.94
2023-02-26T22:41:44.135Z,101925.38
2023-02-26T22:44:10.562Z,101930.59
2023-02-26T22:46:37.026Z,101933.31
2023-02-26T22:49:03.421Z,101926.50
2023-02-26T22:51:29.866Z,101930.03
2023-02-26T22:53:56.193Z,101932.34
2023-02-26T22:56:22.603Z,101930.91
2023-02-26T22:58:48.982Z,101928.84
2023-02-26T23:01:15.924Z,101934.88
2023-02-26T23:03:42.460Z,101932.81
2023-02-26T23:06:08.855Z,101932.81
2023-02-26T23:08:35.309Z,101933.44
2023-02-26T23:11:01.854Z,101929.72
2023-02-26T23:13:28.287Z,101932.63
2023-02-26T23:15:54.789Z,101941.16
2023-02-26T23:18:21.362Z,101946.16
2023-02-26T23:20:47.746Z,101947.00
2023-02-26T23:23:14.175Z,101942.22
2023-02-26T23:25:40.908Z,101947.22
2023-02-26T23:28:07.361Z,101943.06
2023-02-26T23:30:33.891Z,101942.22
2023-02-26T23:33:00.378Z,101947.84
2023-02-26T23:35:26.883Z,101944.28
2023-02-26T23:37:53.415Z,101952.66
2023-02-26T23:40:19.849Z,101958.84
2023-02-26T23:42:46.311Z,101958.03
2023-02-26T23:45:12.698Z,101953.47
2023-02-26T23:47:39.398Z,101958.66
2023-02-26T23:50:05.719Z,101948.72
2023-02-26T23:52:32.059Z,101954.72
2023-02-26T23:54:58.485Z,101946.66
2023-02-26T23:57:25.127Z,101947.28
2023-02-26T23:59:51.653Z,101941.47
